Time;durP1;ratioP1;P1;durP2;ratioP2;P2;SDS_P1;SDS_P2;PMS_P1;PMS_P2;Temp;Humidity;BMP_temperature;BMP_pressure;BME280_temperature;BME280_humidity;BME280_pressure;Samples;Min_cycle;Max_cycle;Signal;HPM_P1;HPM_P2
2021/09/25 00:02:23;;;;;;;2.20;1.30;;;19.50;76.30;;;;;;5093446;28;20484;-45
2021/09/25 00:04:49;;;;;;;1.27;1.17;;;19.40;76.20;;;;;;5093614;28;20130;-50
2021/09/25 00:07:14;;;;;;;1.65;1.20;;;19.40;76.20;;;;;;5093570;28;20047;-47
2021/09/25 00:09:40;;;;;;;1.90;1.48;;;19.40;76.30;;;;;;5093539;28;20047;-44
2021/09/25 00:12:11;;;;;;;1.48;1.30;;;19.40;76.20;;;;;;5093171;28;20468;-44
2021/09/25 00:14:38;;;;;;;1.20;1.10;;;19.40;76.20;;;;;;5093089;28;20109;-46
2021/09/25 00:17:06;;;;;;;1.63;1.35;;;19.40;76.30;;;;;;5093364;28;20093;-49
2021/09/25 00:19:33;;;;;;;1.30;1.20;;;19.40;76.20;;;;;;5092209;28;20058;-42
2021/09/25 00:21:58;;;;;;;1.88;1.33;;;19.40;76.20;;;;;;5093716;28;20044;-42
2021/09/25 00:24:24;;;;;;;1.40;1.25;;;19.40;76.20;;;;;;5093261;28;20399;-42
2021/09/25 00:26:50;;;;;;;1.80;1.40;;;19.40;76.90;;;;;;5093166;28;20052;-41
2021/09/25 00:29:15;;;;;;;1.42;1.30;;;19.40;76.30;;;;;;5091539;28;20055;-42
2021/09/25 00:31:41;;;;;;;1.38;1.00;;;19.40;76.20;;;;;;5092904;28;20051;-41
2021/09/25 00:34:07;;;;;;;1.75;1.40;;;19.40;76.20;;;;;;5093378;28;20063;-42
2021/09/25 00:36:32;;;;;;;1.70;1.20;;;19.40;76.20;;;;;;5093189;28;20044;-42
2021/09/25 00:38:58;;;;;;;1.17;1.08;;;19.40;76.20;;;;;;5092870;28;20123;-43
2021/09/25 00:41:24;;;;;;;1.35;1.20;;;19.40;76.20;;;;;;5092890;28;20039;-41
2021/09/25 00:43:51;;;;;;;1.77;1.42;;;19.40;76.20;;;;;;5093035;28;20398;-41
2021/09/25 00:46:18;;;;;;;2.58;1.35;;;19.50;76.30;;;;;;5092857;28;20040;-42
2021/09/25 00:48:43;;;;;;;1.10;1.00;;;19.50;76.30;;;;;;5093000;28;20094;-43
2021/09/25 00:51:09;;;;;;;1.55;1.00;;;19.40;76.20;;;;;;5093168;28;20040;-42
2021/09/25 00:53:35;;;;;;;1.50;1.20;;;19.40;76.20;;;;;;5092786;28;20044;-42
2021/09/25 00:56:02;;;;;;;1.92;1.15;;;19.50;76.30;;;;;;5092604;28;20048;-41
2021/09/25 00:58:29;;;;;;;1.30;1.20;;;19.40;76.20;;;;;;5092489;28;20392;-41
2021/09/25 01:00:54;;;;;;;1.52;1.15;;;19.40;76.20;;;;;;5095251;28;20512;-41
2021/09/25 01:03:20;;;;;;;1.33;0.95;;;19.40;76.20;;;;;;5096823;28;20044;-42
2021/09/25 01:05:46;;;;;;;1.00;0.88;;;19.40;76.20;;;;;;5096639;28;20115;-42
2021/09/25 01:08:12;;;;;;;1.10;1.00;;;19.50;76.30;;;;;;5096574;28;20084;-43
2021/09/25 01:10:39;;;;;;;1.30;1.05;;;19.40;76.20;;;;;;5096835;28;20051;-42
2021/09/25 01:13:05;;;;;;;1.77;1.02;;;19.40;76.20;;;;;;5095336;28;20040;-44
2021/09/25 01:15:31;;;;;;;1.75;1.10;;;19.50;76.20;;;;;;5096897;28;20161;-44
2021/09/25 01:17:57;;;;;;;1.55;1.23;;;19.40;76.20;;;;;;5096357;28;20397;-44
2021/09/25 01:20:23;;;;;;;1.02;0.95;;;19.50;76.30;;;;;;5096717;28;20097;-43
2021/09/25 01:22:49;;;;;;;1.38;1.15;;;19.50;76.20;;;;;;5096472;28;20458;-44
2021/09/25 01:25:15;;;;;;;1.75;1.20;;;19.40;76.20;;;;;;5096630;28;20085;-42
2021/09/25 01:27:41;;;;;;;1.58;1.33;;;19.40;76.20;;;;;;5096626;28;20045;-43
2021/09/25 01:30:11;;;;;;;1.20;1.10;;;19.40;76.20;;;;;;5095194;28;20484;-43
2021/09/25 01:32:37;;;;;;;0.93;0.90;;;19.40;76.20;;;;;;5095693;28;20369;-42
2021/09/25 01:35:05;;;;;;;1.60;1.20;;;19.50;76.20;;;;;;5096283;28;20040;-42
2021/09/25 01:37:31;;;;;;;1.33;1.20;;;19.50;76.20;;;;;;5096284;28;20044;-42
2021/09/25 01:39:56;;;;;;;1.63;1.15;;;19.40;76.20;;;;;;5094744;28;20495;-43
2021/09/25 01:42:22;;;;;;;0.90;0.90;;;19.40;76.20;;;;;;5096296;28;20081;-42
2021/09/25 01:44:52;;;;;;;1.88;1.27;;;19.50;76.20;;;;;;5096360;28;20047;-42
2021/09/25 01:47:17;;;;;;;1.33;0.95;;;19.40;76.20;;;;;;5095893;28;20063;-42
2021/09/25 01:49:44;;;;;;;1.20;1.10;;;19.40;76.20;;;;;;5095795;28;20044;-44
2021/09/25 01:52:09;;;;;;;1.30;1.10;;;19.40;76.20;;;;;;5096212;28;20044;-42
2021/09/25 01:54:35;;;;;;;1.10;0.80;;;19.40;76.20;;;;;;5094779;28;20052;-42
2021/09/25 01:57:00;;;;;;;1.10;0.98;;;19.50;76.30;;;;;;5096006;28;20044;-46
2021/09/25 01:59:26;;;;;;;1.10;1.00;;;19.40;76.20;;;;;;5095861;28;20101;-42
2021/09/25 02:01:52;;;;;;;1.25;1.10;;;19.40;76.20;;;;;;5096168;28;20066;-42
2021/09/25 02:04:17;;;;;;;1.33;1.10;;;19.40;76.20;;;;;;5095281;28;20048;-44
2021/09/25 02:06:43;;;;;;;1.15;1.00;;;19.40;76.20;;;;;;5094534;28;20131;-42
2021/09/25 02:09:09;;;;;;;1.20;1.10;;;19.40;76.20;;;;;;5095965;28;20036;-44
2021/09/25 02:11:34;;;;;;;1.88;1.00;;;19.40;76.20;;;;;;5095795;28;20036;-44
2021/09/25 02:14:00;;;;;;;1.45;1.10;;;19.40;76.20;;;;;;5095577;28;20487;-42
2021/09/25 02:16:26;;;;;;;1.38;1.20;;;19.40;76.20;;;;;;5095846;28;20123;-44
2021/09/25 02:18:52;;;;;;;1.65;1.50;;;19.40;76.20;;;;;;5094998;28;20143;-44
2021/09/25 02:21:18;;;;;;;1.10;1.00;;;19.40;76.20;;;;;;5095346;28;20048;-42
2021/09/25 02:23:43;;;;;;;1.42;0.90;;;19.40;76.20;;;;;;5095227;28;20047;-42
2021/09/25 02:26:10;;;;;;;1.20;1.10;;;19.40;76.20;;;;;;5095323;28;20032;-44
2021/09/25 02:28:35;;;;;;;1.38;1.02;;;19.50;76.20;;;;;;5095250;28;20044;-43
2021/09/25 02:31:02;;;;;;;1.08;0.98;;;19.40;76.20;;;;;;5095326;28;20507;-43
2021/09/25 02:33:28;;;;;;;1.27;0.95;;;19.40;76.20;;;;;;5095484;28;20043;-42
2021/09/25 02:35:54;;;;;;;1.50;0.93;;;19.40;76.20;;;;;;5094843;28;20392;-43
2021/09/25 02:38:20;;;;;;;1.70;1.17;;;19.40;76.20;;;;;;5094703;28;20052;-42
2021/09/25 02:40:46;;;;;;;0.88;0.85;;;19.40;76.20;;;;;;5095180;28;20396;-46
2021/09/25 02:43:12;;;;;;;1.13;0.88;;;19.40;76.20;;;;;;5094964;28;20044;-43
2021/09/25 02:45:38;;;;;;;0.98;0.95;;;19.40;76.20;;;;;;5095032;28;20083;-42
2021/09/25 02:48:04;;;;;;;1.17;1.00;;;19.40;76.20;;;;;;5093701;28;20070;-42
2021/09/25 02:50:31;;;;;;;1.20;1.10;;;19.40;76.20;;;;;;5095172;28;20068;-44
2021/09/25 02:52:57;;;;;;;1.17;1.08;;;19.40;76.20;;;;;;5094814;28;20447;-46
2021/09/25 02:55:23;;;;;;;0.85;0.80;;;19.40;76.20;;;;;;5095018;28;20094;-43
2021/09/25 02:57:49;;;;;;;1.30;1.10;;;19.40;76.20;;;;;;5094581;28;20040;-42
2021/09/25 03:00:17;;;;;;;1.45;1.20;;;19.40;76.20;;;;;;5094722;28;20500;-43
2021/09/25 03:02:43;;;;;;;0.82;0.80;;;19.40;76.20;;;;;;5094253;28;20502;-43
2021/09/25 03:05:10;;;;;;;1.50;0.93;;;19.40;76.20;;;;;;5094600;28;20503;-43
2021/09/25 03:07:36;;;;;;;1.15;1.00;;;19.40;76.20;;;;;;5094413;28;20031;-45
2021/09/25 03:10:03;;;;;;;1.10;1.00;;;19.40;76.20;;;;;;5076506;28;20040;-44
2021/09/25 03:12:29;;;;;;;1.77;0.90;;;19.40;76.20;;;;;;5094624;28;20051;-43
2021/09/25 03:14:54;;;;;;;1.33;0.90;;;19.40;76.20;;;;;;5094258;28;20123;-45
2021/09/25 03:17:20;;;;;;;1.63;1.17;;;19.40;76.20;;;;;;5093225;28;20052;-43
2021/09/25 03:19:46;;;;;;;1.13;1.02;;;19.40;76.20;;;;;;5094248;28;20101;-42
2021/09/25 03:22:13;;;;;;;1.17;1.00;;;19.40;76.20;;;;;;5093332;28;20131;-43
2021/09/25 03:24:39;;;;;;;1.30;1.00;;;19.40;76.20;;;;;;5094235;28;20043;-42
2021/09/25 03:27:04;;;;;;;1.05;0.98;;;19.40;76.20;;;;;;5094094;28;20400;-41
2021/09/25 03:29:30;;;;;;;1.10;1.02;;;19.50;76.20;;;;;;5092397;28;20048;-48
2021/09/25 03:31:56;;;;;;;0.85;0.80;;;19.40;76.20;;;;;;5094208;28;20404;-48
2021/09/25 03:34:21;;;;;;;0.80;0.80;;;19.40;76.20;;;;;;5094265;28;20054;-45
2021/09/25 03:36:47;;;;;;;0.93;0.85;;;19.40;76.20;;;;;;5094309;28;20127;-44
2021/09/25 03:39:13;;;;;;;0.80;0.80;;;19.40;76.20;;;;;;5093631;28;20047;-47
2021/09/25 03:41:38;;;;;;;1.48;0.90;;;19.40;76.20;;;;;;5093776;28;20042;-46
2021/09/25 03:44:04;;;;;;;1.02;0.95;;;19.40;76.20;;;;;;5092617;28;20085;-43
2021/09/25 03:46:30;;;;;;;1.75;0.88;;;19.40;76.20;;;;;;5093567;28;20043;-45
2021/09/25 03:48:56;;;;;;;1.25;1.00;;;19.40;76.20;;;;;;5094180;28;20044;-46
2021/09/25 03:51:22;;;;;;;0.98;0.88;;;19.50;76.20;;;;;;5093642;28;20039;-47
2021/09/25 03:53:48;;;;;;;0.90;0.75;;;19.40;76.20;;;;;;5093819;28;20499;-47
2021/09/25 03:56:13;;;;;;;1.13;0.93;;;19.40;76.20;;;;;;5093126;28;20480;-46
2021/09/25 03:58:40;;;;;;;1.58;0.90;;;19.40;76.10;;;;;;5093914;28;20039;-45
2021/09/25 04:01:07;;;;;;;0.70;0.70;;;19.40;76.10;;;;;;5093922;28;20113;-44
2021/09/25 04:03:32;;;;;;;1.10;0.82;;;19.40;76.20;;;;;;5093807;28;20428;-43
2021/09/25 04:06:01;;;;;;;0.80;0.80;;;19.40;76.20;;;;;;5092108;28;20127;-47
2021/09/25 04:08:27;;;;;;;1.10;0.88;;;19.40;76.20;;;;;;5093551;28;20051;-44
2021/09/25 04:10:53;;;;;;;0.70;0.70;;;19.40;76.20;;;;;;5092608;28;20384;-45
2021/09/25 04:13:19;;;;;;;1.30;0.88;;;19.50;76.20;;;;;;5093245;28;20040;-46
2021/09/25 04:15:45;;;;;;;1.00;0.80;;;19.40;76.10;;;;;;5093412;28;20044;-49
2021/09/25 04:18:10;;;;;;;1.00;0.88;;;19.40;76.10;;;;;;5093087;28;20411;-46
2021/09/25 04:20:37;;;;;;;1.60;1.05;;;19.40;76.10;;;;;;5093357;28;20070;-45
2021/09/25 04:23:03;;;;;;;1.05;0.93;;;19.50;76.20;;;;;;5091951;28;20105;-44
2021/09/25 04:25:32;;;;;;;0.95;0.80;;;19.40;76.10;;;;;;5093286;28;20043;-45
2021/09/25 04:28:05;;;;;;;0.70;0.70;;;19.40;76.10;;;;;;5092761;28;20039;-44
2021/09/25 04:30:35;;;;;;;1.05;0.90;;;19.40;76.80;;;;;;5093218;28;20052;-44
2021/09/25 04:33:01;;;;;;;1.08;0.88;;;19.40;76.20;;;;;;5092945;28;20527;-47
2021/09/25 04:35:27;;;;;;;1.92;0.90;;;19.40;76.10;;;;;;5091902;28;20079;-43
2021/09/25 04:37:53;;;;;;;0.88;0.85;;;19.40;76.20;;;;;;5091598;28;20476;-48
2021/09/25 04:40:18;;;;;;;0.80;0.80;;;19.40;76.20;;;;;;5092968;28;20051;-47
2021/09/25 04:42:44;;;;;;;1.00;1.00;;;19.40;76.10;;;;;;5092453;28;20040;-44
2021/09/25 04:45:12;;;;;;;0.85;0.82;;;19.40;76.10;;;;;;5093313;28;20044;-45
2021/09/25 04:47:42;;;;;;;0.98;0.82;;;19.40;76.10;;;;;;5092714;28;20063;-45
2021/09/25 04:50:09;;;;;;;1.33;0.77;;;19.50;76.20;;;;;;5092918;28;20039;-45
2021/09/25 04:52:35;;;;;;;0.93;0.80;;;19.40;76.10;;;;;;5092606;28;20044;-44
2021/09/25 04:55:00;;;;;;;0.82;0.82;;;19.40;76.10;;;;;;5092966;28;20036;-43
2021/09/25 04:57:26;;;;;;;0.60;0.60;;;19.40;76.10;;;;;;5092849;28;20040;-47
2021/09/25 04:59:52;;;;;;;0.90;0.90;;;19.40;76.10;;;;;;5092296;28;20040;-47
2021/09/25 05:02:17;;;;;;;0.90;0.80;;;19.40;76.10;;;;;;5092605;28;20036;-48
2021/09/25 05:04:43;;;;;;;1.40;0.88;;;19.40;76.10;;;;;;5092835;28;20559;-43
2021/09/25 05:07:09;;;;;;;1.48;0.90;;;19.40;76.10;;;;;;5092482;28;20036;-44
2021/09/25 05:09:34;;;;;;;0.80;0.80;;;19.40;76.20;;;;;;5092783;28;20048;-48
2021/09/25 05:12:00;;;;;;;0.80;0.80;;;19.40;76.20;;;;;;5092724;28;20046;-46
2021/09/25 05:14:26;;;;;;;1.17;0.80;;;19.40;76.20;;;;;;5092081;28;20094;-46
2021/09/25 05:16:51;;;;;;;0.70;0.70;;;19.40;76.20;;;;;;5092042;28;20176;-43
2021/09/25 05:19:17;;;;;;;0.90;0.90;;;19.40;76.10;;;;;;5091636;28;20385;-44
2021/09/25 05:21:43;;;;;;;0.90;0.90;;;19.50;76.20;;;;;;5091286;28;20385;-47
2021/09/25 05:24:08;;;;;;;0.85;0.80;;;19.40;76.20;;;;;;5091806;28;20040;-44
2021/09/25 05:26:37;;;;;;;0.80;0.80;;;19.40;76.10;;;;;;5092380;28;20152;-48
2021/09/25 05:29:04;;;;;;;1.13;1.00;;;19.40;76.10;;;;;;5092141;28;20089;-44
2021/09/25 05:31:30;;;;;;;0.93;0.80;;;19.40;76.20;;;;;;5092197;28;20408;-44
2021/09/25 05:33:57;;;;;;;0.85;0.85;;;19.40;76.10;;;;;;5092096;28;20530;-46
2021/09/25 05:36:23;;;;;;;1.05;0.70;;;19.40;76.10;;;;;;5092539;28;20040;-47
2021/09/25 05:38:49;;;;;;;0.90;0.90;;;19.50;76.10;;;;;;5092606;28;20416;-50
2021/09/25 05:41:14;;;;;;;0.98;0.88;;;19.40;76.10;;;;;;5092030;28;20042;-49
2021/09/25 05:43:40;;;;;;;1.02;0.90;;;19.40;76.10;;;;;;5092459;28;20275;-47
2021/09/25 05:46:06;;;;;;;0.82;0.82;;;19.40;76.10;;;;;;5093274;28;20043;-47
2021/09/25 05:48:33;;;;;;;0.63;0.63;;;19.40;76.10;;;;;;5094679;28;20059;-47
2021/09/25 05:51:00;;;;;;;0.88;0.88;;;19.50;76.10;;;;;;5096450;28;20051;-48
2021/09/25 05:53:25;;;;;;;0.93;0.88;;;19.40;76.10;;;;;;5096379;28;20044;-48
2021/09/25 05:55:51;;;;;;;1.40;1.10;;;19.40;76.10;;;;;;5095781;28;20047;-48
2021/09/25 05:58:16;;;;;;;1.35;0.93;;;19.50;76.10;;;;;;5096024;28;20043;-47
2021/09/25 06:00:42;;;;;;;1.00;0.90;;;19.40;76.10;;;;;;5094528;28;20047;-47
2021/09/25 06:03:08;;;;;;;0.93;0.82;;;19.40;76.10;;;;;;5093414;28;20097;-47
2021/09/25 06:05:33;;;;;;;1.20;1.10;;;19.40;76.10;;;;;;5096135;28;20040;-47
2021/09/25 06:08:01;;;;;;;0.82;0.80;;;19.40;76.10;;;;;;5094894;28;20050;-44
2021/09/25 06:10:27;;;;;;;0.88;0.85;;;19.40;76.10;;;;;;5095858;28;20053;-40
2021/09/25 06:12:52;;;;;;;0.70;0.70;;;19.40;76.10;;;;;;5095578;28;20048;-40
2021/09/25 06:15:18;;;;;;;0.80;0.70;;;19.40;76.10;;;;;;5095686;28;20040;-41
2021/09/25 06:17:44;;;;;;;1.20;0.90;;;19.40;76.10;;;;;;5094441;28;20055;-40
2021/09/25 06:20:10;;;;;;;1.05;0.98;;;19.50;76.10;;;;;;5095126;28;20109;-42
2021/09/25 06:22:36;;;;;;;0.77;0.77;;;19.40;76.10;;;;;;5095680;28;20051;-43
2021/09/25 06:25:03;;;;;;;0.75;0.70;;;19.40;76.10;;;;;;5095462;28;20415;-42
2021/09/25 06:27:29;;;;;;;0.88;0.82;;;19.40;76.10;;;;;;5095640;28;20047;-41
2021/09/25 06:29:54;;;;;;;1.00;0.90;;;19.40;76.10;;;;;;5095732;28;20036;-42
2021/09/25 06:32:20;;;;;;;2.03;1.00;;;19.40;76.10;;;;;;5094885;28;20052;-40
2021/09/25 06:34:46;;;;;;;0.77;0.70;;;19.40;76.10;;;;;;5094590;28;20036;-43
2021/09/25 06:37:11;;;;;;;1.08;0.90;;;19.40;76.10;;;;;;5095125;28;20060;-41
2021/09/25 06:39:37;;;;;;;1.13;0.98;;;19.40;76.10;;;;;;5095368;28;20069;-41
2021/09/25 06:42:03;;;;;;;1.80;0.80;;;19.40;76.10;;;;;;5094118;28;20085;-43
2021/09/25 06:44:28;;;;;;;0.90;0.70;;;19.40;76.10;;;;;;5095158;28;20483;-44
2021/09/25 06:46:54;;;;;;;0.80;0.80;;;19.40;76.10;;;;;;5095091;28;20089;-41
2021/09/25 06:49:21;;;;;;;0.90;0.70;;;19.40;76.10;;;;;;5094261;28;20079;-42
2021/09/25 06:51:47;;;;;;;1.45;0.90;;;19.40;76.10;;;;;;5094867;28;20047;-47
2021/09/25 06:54:13;;;;;;;1.00;0.73;;;19.40;76.10;;;;;;5094112;28;20044;-47
2021/09/25 06:56:38;;;;;;;0.70;0.70;;;19.40;76.10;;;;;;5085313;28;20047;-45
2021/09/25 06:59:04;;;;;;;1.10;0.88;;;19.40;76.10;;;;;;5079812;28;20131;-45
2021/09/25 07:01:30;;;;;;;0.90;0.90;;;19.40;76.10;;;;;;5074274;28;20036;-42
2021/09/25 07:03:56;;;;;;;0.75;0.70;;;19.40;76.10;;;;;;5091763;28;20092;-44
2021/09/25 07:06:22;;;;;;;0.60;0.60;;;19.40;76.10;;;;;;5093843;28;20043;-43
2021/09/25 07:08:47;;;;;;;1.02;0.93;;;19.40;76.00;;;;;;5093950;28;20036;-43
2021/09/25 07:11:13;;;;;;;0.98;0.80;;;19.40;76.10;;;;;;5093513;28;20044;-45
2021/09/25 07:13:39;;;;;;;1.00;0.90;;;19.40;76.10;;;;;;5094028;28;20089;-44
2021/09/25 07:16:04;;;;;;;0.90;0.80;;;19.40;76.10;;;;;;5092830;28;20052;-46
2021/09/25 07:18:30;;;;;;;15.50;7.75;;;19.40;76.10;;;;;;5092935;28;20059;-45
2021/09/25 07:20:55;;;;;;;17.10;6.90;;;19.40;78.20;;;;;;5093928;28;20051;-44
2021/09/25 07:23:22;;;;;;;11.70;6.35;;;19.50;79.00;;;;;;5094207;28;20050;-49
2021/09/25 07:25:49;;;;;;;14.90;7.03;;;19.40;79.20;;;;;;5093411;28;20162;-45
2021/09/25 07:28:14;;;;;;;11.38;6.38;;;19.40;79.30;;;;;;5094013;28;20131;-46
2021/09/25 07:30:41;;;;;;;10.25;5.50;;;19.50;79.30;;;;;;5092316;28;20072;-43
2021/09/25 07:33:07;;;;;;;8.70;5.22;;;19.50;79.30;;;;;;5091830;28;20101;-43
2021/09/25 07:35:34;;;;;;;9.23;5.38;;;19.40;79.10;;;;;;5093748;28;20392;-43
2021/09/25 07:38:02;;;;;;;9.20;4.95;;;19.40;79.00;;;;;;5093364;28;20414;-46
2021/09/25 07:40:28;;;;;;;9.90;5.07;;;19.50;78.90;;;;;;5092866;28;20044;-44
2021/09/25 07:42:54;;;;;;;12.20;5.13;;;19.40;78.80;;;;;;5091740;28;20047;-44
2021/09/25 07:45:20;;;;;;;10.02;5.18;;;19.50;78.70;;;;;;5094193;28;20040;-44
2021/09/25 07:47:45;;;;;;;8.23;4.32;;;19.40;78.60;;;;;;5091386;28;20043;-45
2021/09/25 07:50:11;;;;;;;9.82;4.78;;;19.50;78.50;;;;;;5093470;28;20051;-48
2021/09/25 07:52:41;;;;;;;6.10;4.00;;;19.40;78.40;;;;;;5093074;28;20040;-48
2021/09/25 07:55:07;;;;;;;8.90;4.60;;;19.40;78.30;;;;;;5092660;28;20036;-48
2021/09/25 07:57:33;;;;;;;10.35;4.47;;;19.50;78.30;;;;;;5091129;28;20051;-43
2021/09/25 07:59:59;;;;;;;7.35;4.53;;;19.40;78.20;;;;;;5091651;28;20040;-49
2021/09/25 08:02:24;;;;;;;5.35;4.13;;;19.50;78.20;;;;;;5091124;28;20185;-47
2021/09/25 08:04:50;;;;;;;9.10;4.20;;;19.40;78.00;;;;;;5093708;28;20040;-44
2021/09/25 08:07:15;;;;;;;7.25;3.50;;;19.40;78.00;;;;;;5092710;28;20047;-44
2021/09/25 08:09:41;;;;;;;6.18;3.42;;;19.40;77.90;;;;;;5091721;28;20162;-43
2021/09/25 08:12:07;;;;;;;7.07;3.97;;;19.40;77.80;;;;;;5093001;28;20044;-45
2021/09/25 08:14:32;;;;;;;6.55;3.85;;;19.40;77.80;;;;;;5093474;28;20118;-45
2021/09/25 08:16:58;;;;;;;6.88;3.85;;;19.50;77.90;;;;;;5092620;28;20773;-44
2021/09/25 08:19:24;;;;;;;6.47;3.78;;;19.40;77.70;;;;;;5092479;28;20101;-47
2021/09/25 08:21:49;;;;;;;6.25;3.67;;;19.40;77.70;;;;;;5091333;28;20044;-44
2021/09/25 08:24:15;;;;;;;6.38;3.42;;;19.40;77.60;;;;;;5089891;28;20156;-44
2021/09/25 08:26:41;;;;;;;6.93;3.47;;;19.40;77.60;;;;;;5091789;28;20048;-44
2021/09/25 08:29:06;;;;;;;6.10;3.60;;;19.40;77.60;;;;;;5091498;28;20126;-44
2021/09/25 08:31:32;;;;;;;5.70;3.30;;;19.40;77.50;;;;;;5091236;28;20551;-44
2021/09/25 08:33:58;;;;;;;5.13;3.50;;;19.50;77.50;;;;;;5092212;28;20054;-44
2021/09/25 08:36:24;;;;;;;5.88;3.60;;;19.50;77.50;;;;;;5093093;28;20044;-43
2021/09/25 08:38:49;;;;;;;4.75;2.92;;;19.40;77.40;;;;;;5092343;28;20043;-51
2021/09/25 08:41:16;;;;;;;6.30;2.92;;;19.50;77.40;;;;;;5090069;28;20040;-45
2021/09/25 08:43:41;;;;;;;6.18;3.17;;;19.40;77.30;;;;;;5091184;28;20036;-47
2021/09/25 08:46:08;;;;;;;5.28;2.83;;;19.40;77.30;;;;;;5090925;28;20117;-44
2021/09/25 08:48:37;;;;;;;10.38;3.20;;;19.40;77.30;;;;;;5092621;28;20048;-45
2021/09/25 08:51:03;;;;;;;5.22;3.00;;;19.40;77.20;;;;;;5092090;28;20047;-43
2021/09/25 08:53:28;;;;;;;4.15;2.60;;;19.40;77.20;;;;;;5092667;28;20044;-44
2021/09/25 08:55:54;;;;;;;6.32;2.90;;;19.50;77.30;;;;;;5090196;28;20044;-44
2021/09/25 08:58:20;;;;;;;5.75;3.00;;;19.40;77.20;;;;;;5092668;28;20044;-44
2021/09/25 09:00:47;;;;;;;5.68;2.92;;;19.50;77.20;;;;;;5092580;28;20054;-44
2021/09/25 09:03:19;;;;;;;4.72;2.78;;;19.50;77.20;;;;;;5092127;28;20040;-44
2021/09/25 09:05:45;;;;;;;4.78;2.70;;;19.50;77.20;;;;;;5092692;28;20431;-44
2021/09/25 09:08:12;;;;;;;7.00;2.83;;;19.50;77.20;;;;;;5092499;28;20044;-44
2021/09/25 09:10:38;;;;;;;4.50;3.15;;;19.50;77.10;;;;;;5090974;28;20423;-44
2021/09/25 09:13:05;;;;;;;5.43;2.75;;;19.40;77.00;;;;;;5092155;28;20040;-44
2021/09/25 09:15:32;;;;;;;4.57;2.80;;;19.50;77.10;;;;;;5091565;28;20484;-54
2021/09/25 09:18:01;;;;;;;4.47;2.45;;;19.40;77.00;;;;;;5092614;28;20051;-53
2021/09/25 09:20:31;;;;;;;3.38;2.40;;;19.40;77.00;;;;;;5092901;28;20052;-44
2021/09/25 09:23:15;;;;;;;4.05;2.40;;;19.50;77.00;;;;;;5096282;28;20392;-47
2021/09/25 09:25:41;;;;;;;10.73;3.58;;;19.50;77.20;;;;;;5096092;28;20059;-49
2021/09/25 09:28:24;;;;;;;2.65;2.20;;;19.40;77.50;;;;;;5095695;28;20043;-46
2021/09/25 09:30:58;;;;;;;3.75;2.40;;;19.50;77.40;;;;;;5095909;28;20101;-45
2021/09/25 09:33:44;;;;;;;3.70;2.45;;;19.50;77.30;;;;;;5095563;28;20048;-48
2021/09/25 09:36:24;;;;;;;6.07;2.53;;;19.50;77.30;;;;;;5075627;28;20369;-44
2021/09/25 09:39:19;;;;;;;6.28;2.22;;;19.50;77.20;;;;;;5075418;28;20488;-48
2021/09/25 09:41:50;;;;;;;5.78;2.70;;;19.50;77.20;;;;;;5075714;28;20051;-44
2021/09/25 09:44:21;;;;;;;5.18;2.28;;;19.50;77.10;;;;;;5076759;28;20056;-45
2021/09/25 09:46:53;;;;;;;5.07;2.53;;;19.50;77.10;;;;;;5128746;27;20131;-46
2021/09/25 09:49:21;;;;;;;4.82;2.80;;;19.50;77.00;;;;;;5095746;28;20051;-46
2021/09/25 09:51:56;;;;;;;4.65;2.60;;;19.50;77.30;;;;;;5095049;28;20056;-51
2021/09/25 09:54:25;;;;;;;5.45;2.67;;;19.50;77.60;;;;;;5095993;28;20068;-45
2021/09/25 09:56:54;;;;;;;6.65;2.85;;;19.50;77.70;;;;;;5095717;28;20123;-47
2021/09/25 09:59:20;;;;;;;3.60;2.75;;;19.50;77.70;;;;;;5094941;28;20044;-48
2021/09/25 10:01:46;;;;;;;5.57;2.60;;;19.50;77.70;;;;;;5095593;28;20043;-53
2021/09/25 10:04:14;;;;;;;4.50;2.78;;;19.50;77.70;;;;;;5095348;28;20040;-46
2021/09/25 10:06:40;;;;;;;4.25;2.20;;;19.50;77.70;;;;;;5095101;28;20135;-45
2021/09/25 10:09:11;;;;;;;2.97;2.25;;;19.50;77.70;;;;;;5095500;28;20078;-49
2021/09/25 10:11:39;;;;;;;3.08;2.50;;;19.50;77.70;;;;;;5095377;28;20044;-46
2021/09/25 10:14:06;;;;;;;4.45;2.30;;;19.50;77.70;;;;;;5092816;28;20056;-52
2021/09/25 10:16:33;;;;;;;3.40;2.45;;;19.50;77.70;;;;;;5094437;28;20036;-50
2021/09/25 10:19:02;;;;;;;4.95;2.60;;;19.50;77.60;;;;;;5094768;28;20457;-51
2021/09/25 10:21:30;;;;;;;4.75;2.92;;;19.50;78.20;;;;;;5094942;28;20490;-43
2021/09/25 10:24:39;;;;;;;3.13;2.20;;;19.50;77.50;;;;;;5094847;28;20451;-50
2021/09/25 10:27:07;;;;;;;5.40;2.42;;;19.50;77.60;;;;;;5061574;28;20519;-49
2021/09/25 10:29:33;;;;;;;3.28;2.22;;;19.50;77.50;;;;;;5071882;28;20046;-46
2021/09/25 10:32:25;;;;;;;3.65;2.20;;;19.50;77.40;;;;;;5072078;28;20131;-45
2021/09/25 10:35:15;;;;;;;3.00;2.10;;;19.50;77.50;;;;;;5071805;28;20048;-51
2021/09/25 10:37:44;;;;;;;4.38;2.20;;;19.50;77.40;;;;;;5071800;28;20610;-52
2021/09/25 10:40:21;;;;;;;4.60;2.10;;;19.50;77.40;;;;;;5071720;28;20431;-50
2021/09/25 10:42:48;;;;;;;4.18;2.30;;;19.50;77.30;;;;;;5055413;28;20048;-44
2021/09/25 10:45:25;;;;;;;3.97;2.13;;;19.50;77.30;;;;;;5071650;28;20056;-47
2021/09/25 10:48:05;;;;;;;2.97;2.20;;;19.50;77.30;;;;;;5071782;28;20044;-52
2021/09/25 10:50:33;;;;;;;2.22;1.90;;;19.50;77.30;;;;;;5071972;28;20057;-51
2021/09/25 10:53:09;;;;;;;2.97;2.03;;;19.50;77.20;;;;;;5072006;28;20520;-50
2021/09/25 10:55:38;;;;;;;2.72;2.30;;;19.60;77.30;;;;;;5072288;28;20048;-53
2021/09/25 10:58:21;;;;;;;3.10;2.13;;;19.60;77.30;;;;;;5071401;28;20044;-52
2021/09/25 11:01:12;;;;;;;2.50;1.90;;;19.60;77.30;;;;;;5071845;28;20048;-48
2021/09/25 11:03:47;;;;;;;3.60;1.83;;;19.50;77.20;;;;;;5072544;28;20075;-54
2021/09/25 11:06:18;;;;;;;4.10;1.98;;;19.50;77.10;;;;;;5073994;28;20128;-49
2021/09/25 11:09:00;;;;;;;3.38;2.03;;;19.50;77.10;;;;;;5074133;28;20043;-53
2021/09/25 11:11:40;;;;;;;2.55;1.80;;;19.60;77.20;;;;;;5084325;28;20036;-51
2021/09/25 11:14:15;;;;;;;3.05;2.00;;;19.50;77.10;;;;;;5093950;28;20040;-53
2021/09/25 11:17:07;;;;;;;3.42;2.08;;;19.50;77.10;;;;;;5093706;28;20135;-42
2021/09/25 11:19:34;;;;;;;2.45;1.90;;;19.60;77.20;;;;;;5093281;28;20157;-43
2021/09/25 11:22:05;;;;;;;2.67;1.98;;;19.60;77.10;;;;;;5094145;28;20076;-43
2021/09/25 11:24:34;;;;;;;2.53;1.80;;;19.50;77.00;;;;;;5093776;28;20040;-43
2021/09/25 11:27:01;;;;;;;2.53;1.80;;;19.50;77.00;;;;;;5093666;28;20127;-47
2021/09/25 11:29:27;;;;;;;2.38;1.70;;;19.50;77.00;;;;;;5093844;28;20040;-46
2021/09/25 11:32:05;;;;;;;2.30;1.77;;;19.50;77.00;;;;;;5093816;28;20087;-42
2021/09/25 11:34:32;;;;;;;2.83;2.33;;;19.60;77.10;;;;;;5093272;28;20089;-42
2021/09/25 11:37:00;;;;;;;2.65;1.65;;;19.50;77.00;;;;;;5093908;28;20052;-43
2021/09/25 11:39:38;;;;;;;2.13;1.60;;;19.60;77.00;;;;;;5093396;28;20488;-44
2021/09/25 11:42:12;;;;;;;2.05;1.67;;;19.60;77.10;;;;;;5093701;28;20083;-42
2021/09/25 11:44:43;;;;;;;2.40;1.70;;;19.60;77.00;;;;;;5092073;28;20059;-44
2021/09/25 11:47:10;;;;;;;2.58;1.60;;;19.50;77.00;;;;;;5092340;28;20036;-45
2021/09/25 11:49:36;;;;;;;2.72;1.70;;;19.60;77.00;;;;;;5083821;28;20051;-44
2021/09/25 11:52:02;;;;;;;2.15;1.40;;;19.50;76.90;;;;;;5073119;28;20051;-43
2021/09/25 11:54:28;;;;;;;2.28;1.50;;;19.60;77.00;;;;;;5072710;28;20544;-45
2021/09/25 11:56:54;;;;;;;3.45;1.73;;;19.60;76.90;;;;;;5072452;28;20080;-43
2021/09/25 11:59:21;;;;;;;2.05;1.85;;;19.60;77.00;;;;;;5073307;28;20091;-44
2021/09/25 12:01:47;;;;;;;2.50;1.60;;;19.60;77.00;;;;;;5073723;28;20041;-42
2021/09/25 12:04:14;;;;;;;2.20;1.80;;;19.60;76.90;;;;;;5072234;28;20037;-44
2021/09/25 12:06:53;;;;;;;2.20;1.60;;;19.60;76.90;;;;;;5085007;28;20426;-43
2021/09/25 12:09:41;;;;;;;2.55;1.58;;;19.60;77.00;;;;;;5082027;28;20087;-44
2021/09/25 12:12:07;;;;;;;1.90;1.40;;;19.60;77.00;;;;;;5093202;28;20345;-42
2021/09/25 12:14:41;;;;;;;2.45;1.65;;;19.60;76.90;;;;;;5090981;28;20063;-44
2021/09/25 12:17:06;;;;;;;1.98;1.50;;;19.60;76.90;;;;;;5093266;28;20036;-43
2021/09/25 12:19:32;;;;;;;2.08;1.38;;;19.60;76.90;;;;;;5092475;28;20048;-45
2021/09/25 12:21:58;;;;;;;1.60;1.40;;;19.60;76.90;;;;;;5091434;28;20130;-45
2021/09/25 12:24:23;;;;;;;1.58;1.48;;;19.60;76.90;;;;;;5091570;28;20496;-45
2021/09/25 12:26:52;;;;;;;2.58;1.60;;;19.60;76.90;;;;;;5091576;28;20108;-43
2021/09/25 12:29:19;;;;;;;1.60;1.50;;;19.60;76.90;;;;;;5092287;28;20059;-46
2021/09/25 12:31:45;;;;;;;2.67;1.67;;;19.60;76.90;;;;;;5092689;28;20048;-44
2021/09/25 12:34:14;;;;;;;2.08;1.63;;;19.60;76.90;;;;;;5092662;28;20055;-44
2021/09/25 12:36:40;;;;;;;1.60;1.33;;;19.60;76.90;;;;;;5091279;28;20040;-43
2021/09/25 12:39:22;;;;;;;2.22;1.70;;;19.60;76.80;;;;;;5090573;28;20381;-43
2021/09/25 12:41:50;;;;;;;1.90;1.60;;;19.60;76.90;;;;;;5092461;28;20047;-44
2021/09/25 12:44:18;;;;;;;1.58;1.48;;;19.60;76.90;;;;;;5092048;28;20040;-43
2021/09/25 12:46:49;;;;;;;2.67;1.70;;;19.60;76.90;;;;;;5092705;28;20392;-46
2021/09/25 12:49:14;;;;;;;1.70;1.55;;;19.60;76.80;;;;;;5083649;28;20047;-44